sensor_id;sensor_type;location;lat;lon;timestamp;temperature;humidity
52103;DHT22;38101;53.126;6.878;2022-11-18T00:02:13;7.30;99.90
52103;DHT22;38101;53.126;6.878;2022-11-18T00:04:39;7.30;99.90
52103;DHT22;38101;53.126;6.878;2022-11-18T00:07:05;7.40;99.90
52103;DHT22;38101;53.126;6.878;2022-11-18T00:09:30;7.30;99.90
52103;DHT22;38101;53.126;6.878;2022-11-18T00:11:56;7.30;99.90
52103;DHT22;38101;53.126;6.878;2022-11-18T00:14:40;7.30;99.90
52103;DHT22;38101;53.126;6.878;2022-11-18T00:17:06;7.30;99.90
52103;DHT22;38101;53.126;6.878;2022-11-18T00:19:34;7.30;99.90
52103;DHT22;38101;53.126;6.878;2022-11-18T00:22:01;7.30;99.90
52103;DHT22;38101;53.126;6.878;2022-11-18T00:24:27;7.30;99.90
52103;DHT22;38101;53.126;6.878;2022-11-18T00:26:53;7.30;99.90
52103;DHT22;38101;53.126;6.878;2022-11-18T00:29:22;7.30;99.90
52103;DHT22;38101;53.126;6.878;2022-11-18T00:31:48;7.30;99.90
52103;DHT22;38101;53.126;6.878;2022-11-18T00:34:15;7.30;99.90
52103;DHT22;38101;53.126;6.878;2022-11-18T00:36:43;7.30;99.90
52103;DHT22;38101;53.126;6.878;2022-11-18T00:39:14;7.30;99.90
52103;DHT22;38101;53.126;6.878;2022-11-18T00:41:40;7.30;99.90
52103;DHT22;38101;53.126;6.878;2022-11-18T00:44:24;7.30;99.90
52103;DHT22;38101;53.126;6.878;2022-11-18T00:46:50;7.30;99.90
52103;DHT22;38101;53.126;6.878;2022-11-18T00:49:16;7.30;99.90
52103;DHT22;38101;53.126;6.878;2022-11-18T00:51:42;7.30;99.90
52103;DHT22;38101;53.126;6.878;2022-11-18T00:54:07;7.30;99.90
52103;DHT22;38101;53.126;6.878;2022-11-18T00:56:35;7.30;99.90
52103;DHT22;38101;53.126;6.878;2022-11-18T00:59:00;7.30;99.90
52103;DHT22;38101;53.126;6.878;2022-11-18T01:01:26;7.30;99.90
52103;DHT22;38101;53.126;6.878;2022-11-18T01:03:52;7.30;99.90
52103;DHT22;38101;53.126;6.878;2022-11-18T01:06:18;7.30;99.90
52103;DHT22;38101;53.126;6.878;2022-11-18T01:08:44;7.20;99.90
52103;DHT22;38101;53.126;6.878;2022-11-18T01:11:09;7.30;99.90
52103;DHT22;38101;53.126;6.878;2022-11-18T01:13:54;7.30;99.90
52103;DHT22;38101;53.126;6.878;2022-11-18T01:16:25;7.30;99.90
52103;DHT22;38101;53.126;6.878;2022-11-18T01:18:51;7.30;99.90
52103;DHT22;38101;53.126;6.878;2022-11-18T01:21:17;7.20;99.90
52103;DHT22;38101;53.126;6.878;2022-11-18T01:23:43;7.20;99.90
52103;DHT22;38101;53.126;6.878;2022-11-18T01:26:11;7.30;99.90
52103;DHT22;38101;53.126;6.878;2022-11-18T01:28:37;7.30;99.90
52103;DHT22;38101;53.126;6.878;2022-11-18T01:31:09;7.30;99.90
52103;DHT22;38101;53.126;6.878;2022-11-18T01:33:35;7.20;99.90
52103;DHT22;38101;53.126;6.878;2022-11-18T01:36:01;7.20;99.90
52103;DHT22;38101;53.126;6.878;2022-11-18T01:38:27;7.20;99.90
52103;DHT22;38101;53.126;6.878;2022-11-18T01:40:54;7.20;99.90
52103;DHT22;38101;53.126;6.878;2022-11-18T01:43:21;7.20;99.90
52103;DHT22;38101;53.126;6.878;2022-11-18T01:45:51;7.20;99.90
52103;DHT22;38101;53.126;6.878;2022-11-18T01:48:33;7.20;99.90
52103;DHT22;38101;53.126;6.878;2022-11-18T01:51:02;7.20;99.90
52103;DHT22;38101;53.126;6.878;2022-11-18T01:53:32;7.20;99.90
52103;DHT22;38101;53.126;6.878;2022-11-18T01:56:02;7.10;99.90
52103;DHT22;38101;53.126;6.878;2022-11-18T01:58:45;7.10;99.90
52103;DHT22;38101;53.126;6.878;2022-11-18T02:01:13;7.10;99.90
52103;DHT22;38101;53.126;6.878;2022-11-18T02:03:38;7.10;99.90
52103;DHT22;38101;53.126;6.878;2022-11-18T02:06:05;7.10;99.90
52103;DHT22;38101;53.126;6.878;2022-11-18T02:08:33;7.10;99.90
52103;DHT22;38101;53.126;6.878;2022-11-18T02:11:03;7.10;99.90
52103;DHT22;38101;53.126;6.878;2022-11-18T02:13:29;7.10;99.90
52103;DHT22;38101;53.126;6.878;2022-11-18T02:16:10;7.00;99.90
52103;DHT22;38101;53.126;6.878;2022-11-18T02:18:59;7.10;99.90
52103;DHT22;38101;53.126;6.878;2022-11-18T02:24:27;7.10;99.90
52103;DHT22;38101;53.126;6.878;2022-11-18T02:29:33;7.10;99.90
52103;DHT22;38101;53.126;6.878;2022-11-18T02:32:12;7.10;99.90
52103;DHT22;38101;53.126;6.878;2022-11-18T02:37:43;7.10;99.90
52103;DHT22;38101;53.126;6.878;2022-11-18T02:40:22;7.00;99.90
52103;DHT22;38101;53.126;6.878;2022-11-18T02:42:54;7.00;99.90
52103;DHT22;38101;53.126;6.878;2022-11-18T02:45:25;7.00;99.90
52103;DHT22;38101;53.126;6.878;2022-11-18T02:47:52;7.10;99.90
52103;DHT22;38101;53.126;6.878;2022-11-18T02:50:23;7.00;99.90
52103;DHT22;38101;53.126;6.878;2022-11-18T02:52:53;7.00;99.90
52103;DHT22;38101;53.126;6.878;2022-11-18T02:55:21;7.00;99.90
52103;DHT22;38101;53.126;6.878;2022-11-18T02:57:49;7.00;99.90
52103;DHT22;38101;53.126;6.878;2022-11-18T03:00:16;7.00;99.90
52103;DHT22;38101;53.126;6.878;2022-11-18T03:02:47;7.00;99.90
52103;DHT22;38101;53.126;6.878;2022-11-18T03:07:56;7.00;99.90
52103;DHT22;38101;53.126;6.878;2022-11-18T03:10:31;6.90;99.90
52103;DHT22;38101;53.126;6.878;2022-11-18T03:16:10;6.90;99.90
52103;DHT22;38101;53.126;6.878;2022-11-18T03:18:52;6.90;99.90
52103;DHT22;38101;53.126;6.878;2022-11-18T03:21:38;6.90;99.90
52103;DHT22;38101;53.126;6.878;2022-11-18T03:24:22;6.90;99.90
52103;DHT22;38101;53.126;6.878;2022-11-18T03:26:50;6.90;99.90
52103;DHT22;38101;53.126;6.878;2022-11-18T03:29:30;6.90;99.90
52103;DHT22;38101;53.126;6.878;2022-11-18T03:32:15;6.80;99.90
52103;DHT22;38101;53.126;6.878;2022-11-18T03:34:48;6.90;99.90
52103;DHT22;38101;53.126;6.878;2022-11-18T03:37:16;6.90;99.90
52103;DHT22;38101;53.126;6.878;2022-11-18T03:39:51;6.90;99.90
52103;DHT22;38101;53.126;6.878;2022-11-18T03:42:19;6.90;99.90
52103;DHT22;38101;53.126;6.878;2022-11-18T03:44:51;6.90;99.90
52103;DHT22;38101;53.126;6.878;2022-11-18T03:47:33;6.90;99.90
52103;DHT22;38101;53.126;6.878;2022-11-18T03:50:10;6.90;99.90
52103;DHT22;38101;53.126;6.878;2022-11-18T03:52:38;6.90;99.90
52103;DHT22;38101;53.126;6.878;2022-11-18T03:55:13;6.80;99.90
52103;DHT22;38101;53.126;6.878;2022-11-18T04:00:14;6.80;99.90
52103;DHT22;38101;53.126;6.878;2022-11-18T04:02:40;6.80;99.90
52103;DHT22;38101;53.126;6.878;2022-11-18T04:05:09;6.80;99.90
52103;DHT22;38101;53.126;6.878;2022-11-18T04:10:32;6.80;99.90
52103;DHT22;38101;53.126;6.878;2022-11-18T04:16:06;6.90;99.90
52103;DHT22;38101;53.126;6.878;2022-11-18T04:18:33;6.90;99.90
52103;DHT22;38101;53.126;6.878;2022-11-18T04:20:59;6.90;99.90
52103;DHT22;38101;53.126;6.878;2022-11-18T04:23:25;6.80;99.90
52103;DHT22;38101;53.126;6.878;2022-11-18T04:25:50;6.80;99.90
52103;DHT22;38101;53.126;6.878;2022-11-18T04:28:16;6.80;99.90
52103;DHT22;38101;53.126;6.878;2022-11-18T04:30:42;6.80;99.90
52103;DHT22;38101;53.126;6.878;2022-11-18T04:33:08;6.80;99.90
52103;DHT22;38101;53.126;6.878;2022-11-18T04:35:34;6.80;99.90
52103;DHT22;38101;53.126;6.878;2022-11-18T04:37:59;6.80;99.90
52103;DHT22;38101;53.126;6.878;2022-11-18T04:40:25;6.80;99.90
52103;DHT22;38101;53.126;6.878;2022-11-18T04:42:51;6.80;99.90
52103;DHT22;38101;53.126;6.878;2022-11-18T04:45:18;6.80;99.90
52103;DHT22;38101;53.126;6.878;2022-11-18T04:47:43;6.80;99.90
52103;DHT22;38101;53.126;6.878;2022-11-18T04:50:09;6.80;99.90
52103;DHT22;38101;53.126;6.878;2022-11-18T04:52:35;6.80;99.90
52103;DHT22;38101;53.126;6.878;2022-11-18T04:55:01;6.80;99.90
52103;DHT22;38101;53.126;6.878;2022-11-18T04:57:27;6.80;99.90
52103;DHT22;38101;53.126;6.878;2022-11-18T04:59:52;6.80;99.90
52103;DHT22;38101;53.126;6.878;2022-11-18T05:02:18;6.80;99.90
52103;DHT22;38101;53.126;6.878;2022-11-18T05:04:44;6.80;99.90
52103;DHT22;38101;53.126;6.878;2022-11-18T05:07:13;6.80;99.90
52103;DHT22;38101;53.126;6.878;2022-11-18T05:09:40;6.80;99.90
52103;DHT22;38101;53.126;6.878;2022-11-18T05:12:12;6.80;99.90
52103;DHT22;38101;53.126;6.878;2022-11-18T05:14:57;6.80;99.90
52103;DHT22;38101;53.126;6.878;2022-11-18T05:17:23;6.80;99.90
52103;DHT22;38101;53.126;6.878;2022-11-18T05:19:49;6.70;99.90
52103;DHT22;38101;53.126;6.878;2022-11-18T05:22:15;6.80;99.90
52103;DHT22;38101;53.126;6.878;2022-11-18T05:24:41;6.80;99.90
52103;DHT22;38101;53.126;6.878;2022-11-18T05:27:06;6.80;99.90
52103;DHT22;38101;53.126;6.878;2022-11-18T05:29:32;6.80;99.90
52103;DHT22;38101;53.126;6.878;2022-11-18T05:31:58;6.70;99.90
52103;DHT22;38101;53.126;6.878;2022-11-18T05:34:24;6.70;99.90
52103;DHT22;38101;53.126;6.878;2022-11-18T05:36:49;6.70;99.90
52103;DHT22;38101;53.126;6.878;2022-11-18T05:39:15;6.70;99.90
52103;DHT22;38101;53.126;6.878;2022-11-18T05:41:41;6.70;99.90
52103;DHT22;38101;53.126;6.878;2022-11-18T05:44:25;6.70;99.90
52103;DHT22;38101;53.126;6.878;2022-11-18T05:46:52;6.70;99.90
52103;DHT22;38101;53.126;6.878;2022-11-18T05:49:19;6.70;99.90
52103;DHT22;38101;53.126;6.878;2022-11-18T05:51:44;6.70;99.90
52103;DHT22;38101;53.126;6.878;2022-11-18T05:54:12;6.70;99.90
52103;DHT22;38101;53.126;6.878;2022-11-18T05:56:41;6.60;99.90
52103;DHT22;38101;53.126;6.878;2022-11-18T05:59:09;6.60;99.90
52103;DHT22;38101;53.126;6.878;2022-11-18T06:01:44;6.60;99.90
52103;DHT22;38101;53.126;6.878;2022-11-18T06:04:38;6.60;99.90
52103;DHT22;38101;53.126;6.878;2022-11-18T06:07:36;6.60;99.90
52103;DHT22;38101;53.126;6.878;2022-11-18T06:10:04;6.60;99.90
52103;DHT22;38101;53.126;6.878;2022-11-18T06:12:34;6.60;99.90
52103;DHT22;38101;53.126;6.878;2022-11-18T06:15:26;6.60;99.90
52103;DHT22;38101;53.126;6.878;2022-11-18T06:17:56;6.60;99.90
52103;DHT22;38101;53.126;6.878;2022-11-18T06:20:28;6.60;99.90
52103;DHT22;38101;53.126;6.878;2022-11-18T06:22:55;6.60;99.90
52103;DHT22;38101;53.126;6.878;2022-11-18T06:25:22;6.60;99.90
52103;DHT22;38101;53.126;6.878;2022-11-18T06:27:49;6.50;99.90
52103;DHT22;38101;53.126;6.878;2022-11-18T06:30:16;6.60;99.90
52103;DHT22;38101;53.126;6.878;2022-11-18T06:32:42;6.60;99.90
52103;DHT22;38101;53.126;6.878;2022-11-18T06:35:09;6.50;99.90
52103;DHT22;38101;53.126;6.878;2022-11-18T06:37:35;6.50;99.90
52103;DHT22;38101;53.126;6.878;2022-11-18T06:40:01;6.50;99.90
52103;DHT22;38101;53.126;6.878;2022-11-18T06:42:27;6.50;99.90
52103;DHT22;38101;53.126;6.878;2022-11-18T06:45:12;6.40;99.90
52103;DHT22;38101;53.126;6.878;2022-11-18T06:47:37;6.50;99.90
52103;DHT22;38101;53.126;6.878;2022-11-18T06:50:04;6.50;99.90
52103;DHT22;38101;53.126;6.878;2022-11-18T06:52:30;6.40;99.90
52103;DHT22;38101;53.126;6.878;2022-11-18T06:54:55;6.40;99.90
52103;DHT22;38101;53.126;6.878;2022-11-18T06:57:21;6.50;99.90
52103;DHT22;38101;53.126;6.878;2022-11-18T06:59:47;6.50;99.90
52103;DHT22;38101;53.126;6.878;2022-11-18T07:02:13;6.40;99.90
52103;DHT22;38101;53.126;6.878;2022-11-18T07:04:39;6.40;99.90
52103;DHT22;38101;53.126;6.878;2022-11-18T07:07:08;6.50;99.90
52103;DHT22;38101;53.126;6.878;2022-11-18T07:09:35;6.50;99.90
52103;DHT22;38101;53.126;6.878;2022-11-18T07:12:01;6.50;99.90
52103;DHT22;38101;53.126;6.878;2022-11-18T07:14:31;6.40;99.90
52103;DHT22;38101;53.126;6.878;2022-11-18T07:16:56;6.40;99.90
52103;DHT22;38101;53.126;6.878;2022-11-18T07:19:22;6.40;99.90
52103;DHT22;38101;53.126;6.878;2022-11-18T07:21:48;6.40;99.90
52103;DHT22;38101;53.126;6.878;2022-11-18T07:24:14;6.40;99.90
52103;DHT22;38101;53.126;6.878;2022-11-18T07:26:41;6.40;99.90
52103;DHT22;38101;53.126;6.878;2022-11-18T07:29:07;6.40;99.90
52103;DHT22;38101;53.126;6.878;2022-11-18T07:31:34;6.30;99.90
52103;DHT22;38101;53.126;6.878;2022-11-18T07:34:02;6.30;99.90
52103;DHT22;38101;53.126;6.878;2022-11-18T07:36:28;6.30;99.90
52103;DHT22;38101;53.126;6.878;2022-11-18T07:38:55;6.40;99.90
52103;DHT22;38101;53.126;6.878;2022-11-18T07:41:26;6.30;99.90
52103;DHT22;38101;53.126;6.878;2022-11-18T07:43:54;6.30;99.90
52103;DHT22;38101;53.126;6.878;2022-11-18T07:46:22;6.30;99.90
52103;DHT22;38101;53.126;6.878;2022-11-18T07:48:50;6.20;99.90
52103;DHT22;38101;53.126;6.878;2022-11-18T07:51:19;6.20;99.90
52103;DHT22;38101;53.126;6.878;2022-11-18T07:53:45;6.30;99.90
52103;DHT22;38101;53.126;6.878;2022-11-18T07:56:12;6.30;99.90
52103;DHT22;38101;53.126;6.878;2022-11-18T07:58:38;6.30;99.90
52103;DHT22;38101;53.126;6.878;2022-11-18T08:01:15;6.30;99.90
52103;DHT22;38101;53.126;6.878;2022-11-18T08:03:42;6.30;99.90
52103;DHT22;38101;53.126;6.878;2022-11-18T08:06:10;6.30;99.90
52103;DHT22;38101;53.126;6.878;2022-11-18T08:08:36;6.40;99.90
52103;DHT22;38101;53.126;6.878;2022-11-18T08:11:05;6.30;99.90
52103;DHT22;38101;53.126;6.878;2022-11-18T08:13:31;6.30;99.90
52103;DHT22;38101;53.126;6.878;2022-11-18T08:15:57;6.30;99.90
52103;DHT22;38101;53.126;6.878;2022-11-18T08:18:24;6.30;99.90
52103;DHT22;38101;53.126;6.878;2022-11-18T08:20:50;6.30;99.90
52103;DHT22;38101;53.126;6.878;2022-11-18T08:23:16;6.20;99.90
52103;DHT22;38101;53.126;6.878;2022-11-18T08:25:44;6.30;99.90
52103;DHT22;38101;53.126;6.878;2022-11-18T08:28:10;6.20;99.90
52103;DHT22;38101;53.126;6.878;2022-11-18T08:30:37;6.20;99.90
52103;DHT22;38101;53.126;6.878;2022-11-18T08:33:06;6.20;99.90
52103;DHT22;38101;53.126;6.878;2022-11-18T08:35:32;6.20;99.90
52103;DHT22;38101;53.126;6.878;2022-11-18T08:37:59;6.20;99.90
52103;DHT22;38101;53.126;6.878;2022-11-18T08:40:25;6.20;99.90
52103;DHT22;38101;53.126;6.878;2022-11-18T08:42:51;6.20;99.90
52103;DHT22;38101;53.126;6.878;2022-11-18T08:45:17;6.10;99.90
52103;DHT22;38101;53.126;6.878;2022-11-18T08:47:43;6.20;99.90
52103;DHT22;38101;53.126;6.878;2022-11-18T08:50:09;6.20;99.90
52103;DHT22;38101;53.126;6.878;2022-11-18T08:52:36;6.20;99.90
52103;DHT22;38101;53.126;6.878;2022-11-18T08:55:02;6.20;99.90
52103;DHT22;38101;53.126;6.878;2022-11-18T08:57:28;6.20;99.90
52103;DHT22;38101;53.126;6.878;2022-11-18T08:59:54;6.20;99.90
52103;DHT22;38101;53.126;6.878;2022-11-18T09:02:22;6.20;99.90
52103;DHT22;38101;53.126;6.878;2022-11-18T09:04:51;6.20;99.90
52103;DHT22;38101;53.126;6.878;2022-11-18T09:07:18;6.20;99.90
52103;DHT22;38101;53.126;6.878;2022-11-18T09:09:44;6.10;99.90
52103;DHT22;38101;53.126;6.878;2022-11-18T09:12:10;6.10;99.90
52103;DHT22;38101;53.126;6.878;2022-11-18T09:14:45;6.10;99.90
52103;DHT22;38101;53.126;6.878;2022-11-18T09:17:11;6.10;99.90
52103;DHT22;38101;53.126;6.878;2022-11-18T09:19:38;6.10;99.90
52103;DHT22;38101;53.126;6.878;2022-11-18T09:22:05;6.10;99.90
52103;DHT22;38101;53.126;6.878;2022-11-18T09:24:31;6.10;99.90
52103;DHT22;38101;53.126;6.878;2022-11-18T09:26:57;6.10;99.90
52103;DHT22;38101;53.126;6.878;2022-11-18T09:29:23;6.00;99.90
52103;DHT22;38101;53.126;6.878;2022-11-18T09:31:53;6.10;99.90
52103;DHT22;38101;53.126;6.878;2022-11-18T09:34:19;6.00;99.90
52103;DHT22;38101;53.126;6.878;2022-11-18T09:36:45;6.00;99.90
52103;DHT22;38101;53.126;6.878;2022-11-18T09:39:10;6.00;99.90
52103;DHT22;38101;53.126;6.878;2022-11-18T09:47:30;6.00;99.90
52103;DHT22;38101;53.126;6.878;2022-11-18T09:50:02;6.00;99.90
52103;DHT22;38101;53.126;6.878;2022-11-18T09:55:13;6.10;99.90
52103;DHT22;38101;53.126;6.878;2022-11-18T09:57:43;6.00;99.90
52103;DHT22;38101;53.126;6.878;2022-11-18T10:00:23;6.00;99.90
52103;DHT22;38101;53.126;6.878;2022-11-18T10:05:30;6.00;99.90
52103;DHT22;38101;53.126;6.878;2022-11-18T10:11:00;5.90;99.90
52103;DHT22;38101;53.126;6.878;2022-11-18T10:13:57;5.90;99.90
52103;DHT22;38101;53.126;6.878;2022-11-18T10:21:59;5.90;99.90
52103;DHT22;38101;53.126;6.878;2022-11-18T10:24:50;5.80;99.90
52103;DHT22;38101;53.126;6.878;2022-11-18T10:27:16;5.80;99.90
52103;DHT22;38101;53.126;6.878;2022-11-18T10:29:44;5.80;99.90
52103;DHT22;38101;53.126;6.878;2022-11-18T10:32:12;5.80;99.90
52103;DHT22;38101;53.126;6.878;2022-11-18T10:34:50;5.80;99.90
52103;DHT22;38101;53.126;6.878;2022-11-18T10:39:56;5.70;99.90
52103;DHT22;38101;53.126;6.878;2022-11-18T10:47:40;5.60;99.90
52103;DHT22;38101;53.126;6.878;2022-11-18T10:50:44;5.60;99.90
52103;DHT22;38101;53.126;6.878;2022-11-18T10:53:32;5.60;99.90
52103;DHT22;38101;53.126;6.878;2022-11-18T10:56:00;5.60;99.90
52103;DHT22;38101;53.126;6.878;2022-11-18T10:58:29;5.60;99.90
52103;DHT22;38101;53.126;6.878;2022-11-18T11:01:27;5.50;99.90
52103;DHT22;38101;53.126;6.878;2022-11-18T11:03:59;5.50;99.90
52103;DHT22;38101;53.126;6.878;2022-11-18T11:09:09;5.50;99.90
52103;DHT22;38101;53.126;6.878;2022-11-18T11:11:41;5.50;99.90
52103;DHT22;38101;53.126;6.878;2022-11-18T11:14:34;5.50;99.90
52103;DHT22;38101;53.126;6.878;2022-11-18T11:22:40;5.50;99.90
52103;DHT22;38101;53.126;6.878;2022-11-18T11:28:01;5.50;99.90
52103;DHT22;38101;53.126;6.878;2022-11-18T11:30:50;5.50;99.90
52103;DHT22;38101;53.126;6.878;2022-11-18T11:44:20;5.30;99.90
52103;DHT22;38101;53.126;6.878;2022-11-18T11:50:12;5.30;99.90
52103;DHT22;38101;53.126;6.878;2022-11-18T11:55:32;5.40;99.90
52103;DHT22;38101;53.126;6.878;2022-11-18T12:00:44;5.40;99.90
52103;DHT22;38101;53.126;6.878;2022-11-18T12:03:41;5.30;99.90
52103;DHT22;38101;53.126;6.878;2022-11-18T12:06:09;5.40;99.90
52103;DHT22;38101;53.126;6.878;2022-11-18T12:08:38;5.30;99.90
52103;DHT22;38101;53.126;6.878;2022-11-18T12:11:39;5.30;99.90
52103;DHT22;38101;53.126;6.878;2022-11-18T12:14:34;5.30;99.90
52103;DHT22;38101;53.126;6.878;2022-11-18T12:17:21;5.30;99.90
52103;DHT22;38101;53.126;6.878;2022-11-18T12:19:49;5.30;99.90
52103;DHT22;38101;53.126;6.878;2022-11-18T12:22:15;5.20;99.90
52103;DHT22;38101;53.126;6.878;2022-11-18T12:24:41;5.20;99.90
52103;DHT22;38101;53.126;6.878;2022-11-18T12:27:51;5.20;99.90
52103;DHT22;38101;53.126;6.878;2022-11-18T12:30:03;5.20;99.90
52103;DHT22;38101;53.126;6.878;2022-11-18T12:32:37;5.20;99.90
52103;DHT22;38101;53.126;6.878;2022-11-18T12:40:43;5.10;99.90
52103;DHT22;38101;53.126;6.878;2022-11-18T12:46:47;5.00;99.90
52103;DHT22;38101;53.126;6.878;2022-11-18T12:52:01;5.00;99.90
52103;DHT22;38101;53.126;6.878;2022-11-18T13:02:54;4.90;99.90
52103;DHT22;38101;53.126;6.878;2022-11-18T13:05:27;4.90;99.90
52103;DHT22;38101;53.126;6.878;2022-11-18T13:08:09;4.90;99.90
52103;DHT22;38101;53.126;6.878;2022-11-18T13:10:50;4.80;99.90
52103;DHT22;38101;53.126;6.878;2022-11-18T13:13:31;4.80;99.90
52103;DHT22;38101;53.126;6.878;2022-11-18T13:16:02;4.80;99.90
52103;DHT22;38101;53.126;6.878;2022-11-18T13:18:52;4.80;99.90
52103;DHT22;38101;53.126;6.878;2022-11-18T13:21:24;4.70;99.90
52103;DHT22;38101;53.126;6.878;2022-11-18T13:24:17;4.70;99.90
52103;DHT22;38101;53.126;6.878;2022-11-18T13:26:44;4.70;99.90
52103;DHT22;38101;53.126;6.878;2022-11-18T13:29:37;4.70;99.90
52103;DHT22;38101;53.126;6.878;2022-11-18T13:34:47;4.60;99.90
52103;DHT22;38101;53.126;6.878;2022-11-18T13:37:25;4.70;99.90
52103;DHT22;38101;53.126;6.878;2022-11-18T13:39:51;4.60;99.90
52103;DHT22;38101;53.126;6.878;2022-11-18T13:42:20;4.60;99.90
52103;DHT22;38101;53.126;6.878;2022-11-18T13:44:57;4.70;99.90
52103;DHT22;38101;53.126;6.878;2022-11-18T13:47:53;4.60;99.90
52103;DHT22;38101;53.126;6.878;2022-11-18T13:50:41;4.50;99.90
52103;DHT22;38101;53.126;6.878;2022-11-18T13:53:31;4.50;99.90
52103;DHT22;38101;53.126;6.878;2022-11-18T13:56:00;4.50;99.90
52103;DHT22;38101;53.126;6.878;2022-11-18T13:58:36;4.40;99.90
52103;DHT22;38101;53.126;6.878;2022-11-18T14:01:06;4.40;99.90
52103;DHT22;38101;53.126;6.878;2022-11-18T14:06:05;4.30;99.90
52103;DHT22;38101;53.126;6.878;2022-11-18T14:08:34;4.30;99.90
52103;DHT22;38101;53.126;6.878;2022-11-18T14:11:01;4.30;99.90
52103;DHT22;38101;53.126;6.878;2022-11-18T14:14:01;4.30;99.90
52103;DHT22;38101;53.126;6.878;2022-11-18T14:18:51;4.30;99.90
52103;DHT22;38101;53.126;6.878;2022-11-18T14:21:31;4.30;99.90
52103;DHT22;38101;53.126;6.878;2022-11-18T14:23:58;4.30;99.90
52103;DHT22;38101;53.126;6.878;2022-11-18T14:26:30;4.20;99.90
52103;DHT22;38101;53.126;6.878;2022-11-18T14:29:01;4.20;99.90
52103;DHT22;38101;53.126;6.878;2022-11-18T14:31:31;4.30;99.90
52103;DHT22;38101;53.126;6.878;2022-11-18T14:36:49;4.20;99.90
52103;DHT22;38101;53.126;6.878;2022-11-18T14:39:29;4.30;99.90
52103;DHT22;38101;53.126;6.878;2022-11-18T14:41:56;4.10;99.90
52103;DHT22;38101;53.126;6.878;2022-11-18T14:44:24;4.10;99.90
52103;DHT22;38101;53.126;6.878;2022-11-18T14:46:51;4.10;99.90
52103;DHT22;38101;53.126;6.878;2022-11-18T14:49:22;4.10;99.90
52103;DHT22;38101;53.126;6.878;2022-11-18T14:51:49;4.10;99.90
52103;DHT22;38101;53.126;6.878;2022-11-18T14:54:17;4.10;99.90
52103;DHT22;38101;53.126;6.878;2022-11-18T14:56:44;4.10;99.90
52103;DHT22;38101;53.126;6.878;2022-11-18T14:59:14;4.10;99.90
52103;DHT22;38101;53.126;6.878;2022-11-18T15:01:41;4.10;99.90
52103;DHT22;38101;53.126;6.878;2022-11-18T15:04:07;4.10;99.90
52103;DHT22;38101;53.126;6.878;2022-11-18T15:06:33;4.10;99.90
52103;DHT22;38101;53.126;6.878;2022-11-18T15:08:59;4.10;99.90
52103;DHT22;38101;53.126;6.878;2022-11-18T15:11:25;4.10;99.90
52103;DHT22;38101;53.126;6.878;2022-11-18T15:13:51;4.00;99.90
52103;DHT22;38101;53.126;6.878;2022-11-18T15:16:18;4.00;99.90
52103;DHT22;38101;53.126;6.878;2022-11-18T15:18:49;4.00;99.90
52103;DHT22;38101;53.126;6.878;2022-11-18T15:21:15;4.00;99.90
52103;DHT22;38101;53.126;6.878;2022-11-18T15:23:42;4.00;99.90
52103;DHT22;38101;53.126;6.878;2022-11-18T15:26:20;4.00;99.90
52103;DHT22;38101;53.126;6.878;2022-11-18T15:28:48;4.00;99.90
52103;DHT22;38101;53.126;6.878;2022-11-18T15:31:14;4.00;99.90
52103;DHT22;38101;53.126;6.878;2022-11-18T15:33:40;4.00;99.90
52103;DHT22;38101;53.126;6.878;2022-11-18T15:36:14;4.00;99.90
52103;DHT22;38101;53.126;6.878;2022-11-18T15:38:40;4.00;99.90
52103;DHT22;38101;53.126;6.878;2022-11-18T15:41:16;4.00;99.90
52103;DHT22;38101;53.126;6.878;2022-11-18T15:43:43;3.90;99.90
52103;DHT22;38101;53.126;6.878;2022-11-18T15:46:09;3.90;99.90
52103;DHT22;38101;53.126;6.878;2022-11-18T15:48:35;3.90;99.90
52103;DHT22;38101;53.126;6.878;2022-11-18T15:51:01;3.90;99.90
52103;DHT22;38101;53.126;6.878;2022-11-18T15:53:27;3.90;99.90
52103;DHT22;38101;53.126;6.878;2022-11-18T15:59:18;3.80;99.90
52103;DHT22;38101;53.126;6.878;2022-11-18T16:01:46;3.80;99.90
52103;DHT22;38101;53.126;6.878;2022-11-18T16:04:15;3.70;99.90
52103;DHT22;38101;53.126;6.878;2022-11-18T16:06:42;3.70;99.90
52103;DHT22;38101;53.126;6.878;2022-11-18T16:09:08;3.70;99.90
52103;DHT22;38101;53.126;6.878;2022-11-18T16:11:34;3.70;99.90
52103;DHT22;38101;53.126;6.878;2022-11-18T16:14:20;3.70;99.90
52103;DHT22;38101;53.126;6.878;2022-11-18T16:16:48;3.70;99.90
52103;DHT22;38101;53.126;6.878;2022-11-18T16:19:16;3.70;99.90
52103;DHT22;38101;53.126;6.878;2022-11-18T16:21:48;3.70;99.90
52103;DHT22;38101;53.126;6.878;2022-11-18T16:24:17;3.70;99.90
52103;DHT22;38101;53.126;6.878;2022-11-18T16:26:46;3.70;99.90
52103;DHT22;38101;53.126;6.878;2022-11-18T16:29:12;3.70;99.90
52103;DHT22;38101;53.126;6.878;2022-11-18T16:31:40;3.60;99.90
52103;DHT22;38101;53.126;6.878;2022-11-18T16:36:34;3.50;99.90
52103;DHT22;38101;53.126;6.878;2022-11-18T16:39:07;3.60;99.90
52103;DHT22;38101;53.126;6.878;2022-11-18T16:41:33;3.60;99.90
52103;DHT22;38101;53.126;6.878;2022-11-18T16:44:01;3.70;99.90
52103;DHT22;38101;53.126;6.878;2022-11-18T16:46:32;3.70;99.90
52103;DHT22;38101;53.126;6.878;2022-11-18T16:48:58;3.60;99.90
52103;DHT22;38101;53.126;6.878;2022-11-18T16:51:27;3.60;99.90
52103;DHT22;38101;53.126;6.878;2022-11-18T16:54:04;3.60;99.90
52103;DHT22;38101;53.126;6.878;2022-11-18T16:56:33;3.60;99.90
52103;DHT22;38101;53.126;6.878;2022-11-18T16:59:01;3.50;99.90
52103;DHT22;38101;53.126;6.878;2022-11-18T17:01:28;3.50;99.90
52103;DHT22;38101;53.126;6.878;2022-11-18T17:03:54;3.50;99.90
52103;DHT22;38101;53.126;6.878;2022-11-18T17:06:21;3.50;99.90
52103;DHT22;38101;53.126;6.878;2022-11-18T17:08:48;3.50;99.90
52103;DHT22;38101;53.126;6.878;2022-11-18T17:11:14;3.50;99.90
52103;DHT22;38101;53.126;6.878;2022-11-18T17:13:40;3.50;99.90
52103;DHT22;38101;53.126;6.878;2022-11-18T17:16:17;3.50;99.90
52103;DHT22;38101;53.126;6.878;2022-11-18T17:18:44;3.40;99.90
52103;DHT22;38101;53.126;6.878;2022-11-18T17:21:16;3.40;99.90
52103;DHT22;38101;53.126;6.878;2022-11-18T17:23:43;3.40;99.90
52103;DHT22;38101;53.126;6.878;2022-11-18T17:26:11;3.40;99.90
52103;DHT22;38101;53.126;6.878;2022-11-18T17:28:37;3.50;99.90
52103;DHT22;38101;53.126;6.878;2022-11-18T17:31:06;3.40;99.90
52103;DHT22;38101;53.126;6.878;2022-11-18T17:33:33;3.40;99.90
52103;DHT22;38101;53.126;6.878;2022-11-18T17:36:00;3.30;99.90
52103;DHT22;38101;53.126;6.878;2022-11-18T17:38:27;3.30;99.90
52103;DHT22;38101;53.126;6.878;2022-11-18T17:40:54;3.30;99.90
52103;DHT22;38101;53.126;6.878;2022-11-18T17:43:21;3.20;99.90
52103;DHT22;38101;53.126;6.878;2022-11-18T17:46:04;3.20;99.90
52103;DHT22;38101;53.126;6.878;2022-11-18T17:48:30;3.20;99.90
52103;DHT22;38101;53.126;6.878;2022-11-18T17:51:05;3.10;99.90
52103;DHT22;38101;53.126;6.878;2022-11-18T17:53:31;3.10;99.90
52103;DHT22;38101;53.126;6.878;2022-11-18T17:55:57;3.10;99.90
52103;DHT22;38101;53.126;6.878;2022-11-18T17:58:25;3.10;99.90
52103;DHT22;38101;53.126;6.878;2022-11-18T18:00:50;3.10;99.90
52103;DHT22;38101;53.126;6.878;2022-11-18T18:03:16;3.10;99.90